General Aviation Weather

Text Reports

Enter one or more of the following location identifiers separated by a space:

Zip Code, Four-Character ICAO or Three-Character IATA airport codes.

METAR - Aviation Routine Weather Report
KGLR - Gaylord, Michigan
Updated at 11:53 PM GMT en Abril 17, 2014 (7:53 PM EDT):
METAR KGLR 172353Z AUTO VRB04KT 10SM FEW060 07/M03 A3019 RMK AO2 SLP237 T00721033 10122 20072 53008
TAF - Terminal Area Forecast
KGLR - Gaylord, Michigan
Updated at 11:53 PM GMT en Abril 17, 2014 (7:53 PM EDT):
No TAF is currently available for this location.
Decoded:
No decoded TAF is available.
PIREP - Pilot Weather Report
KGLR - Gaylord, Michigan
Updated at 11:53 PM GMT en Abril 17, 2014 (7:53 PM EDT):
No PIREP is currently available for this location.
AIRMET - Airmens Meteorological Information
KGLR - Gaylord, Michigan
Updated at 11:53 PM GMT en Abril 17, 2014 (7:53 PM EDT):
No AIRMET is currently available for this location.
SIGMET - Significant Meteorological Information
KGLR - Gaylord, Michigan
Updated at 11:53 PM GMT en Abril 17, 2014 (7:53 PM EDT):
No SIGMET is currently available for this location.
NOTAM - Notice to Airmen
KGLR - Gaylord, Michigan
Updated at 11:53 PM GMT en Abril 17, 2014 (7:53 PM EDT):
No NOTAM is currently available for this location.
Forecast Area
KGLR - Gaylord, Michigan
Updated at 11:53 PM GMT en Abril 17, 2014 (7:53 PM EDT):
No NOTAM is currently available for this location.
Aviation Weather Maps